sensor_id;sensor_type;location;lat;lon;timestamp;temperature;humidity
77523;SHT31;66637;-29.628;-49.938;2024-01-27T00:00:01;23.28;80.27
77523;SHT31;66637;-29.628;-49.938;2024-01-27T00:02:39;23.28;80.48
77523;SHT31;66637;-29.628;-49.938;2024-01-27T00:05:11;23.30;81.50
77523;SHT31;66637;-29.628;-49.938;2024-01-27T00:07:43;23.33;81.69
77523;SHT31;66637;-29.628;-49.938;2024-01-27T00:10:13;23.37;81.78
77523;SHT31;66637;-29.628;-49.938;2024-01-27T00:12:44;23.43;81.59
77523;SHT31;66637;-29.628;-49.938;2024-01-27T00:15:15;23.35;81.50
77523;SHT31;66637;-29.628;-49.938;2024-01-27T00:17:46;23.34;81.24
77523;SHT31;66637;-29.628;-49.938;2024-01-27T00:20:16;23.28;81.60
77523;SHT31;66637;-29.628;-49.938;2024-01-27T00:22:46;23.33;82.17
77523;SHT31;66637;-29.628;-49.938;2024-01-27T00:25:19;23.34;82.06
77523;SHT31;66637;-29.628;-49.938;2024-01-27T00:27:49;23.31;81.65
77523;SHT31;66637;-29.628;-49.938;2024-01-27T00:30:19;23.37;82.67
77523;SHT31;66637;-29.628;-49.938;2024-01-27T00:32:48;23.41;83.96
77523;SHT31;66637;-29.628;-49.938;2024-01-27T00:35:19;23.27;81.98
77523;SHT31;66637;-29.628;-49.938;2024-01-27T00:37:52;22.84;82.32
77523;SHT31;66637;-29.628;-49.938;2024-01-27T00:40:22;22.66;81.48
77523;SHT31;66637;-29.628;-49.938;2024-01-27T00:42:52;22.86;83.55
77523;SHT31;66637;-29.628;-49.938;2024-01-27T00:45:23;22.93;84.72
77523;SHT31;66637;-29.628;-49.938;2024-01-27T00:47:57;22.96;84.55
77523;SHT31;66637;-29.628;-49.938;2024-01-27T00:50:27;22.94;84.15
77523;SHT31;66637;-29.628;-49.938;2024-01-27T00:52:58;22.96;84.45
77523;SHT31;66637;-29.628;-49.938;2024-01-27T00:55:27;23.00;84.04
77523;SHT31;66637;-29.628;-49.938;2024-01-27T00:57:57;23.06;83.84
77523;SHT31;66637;-29.628;-49.938;2024-01-27T01:00:28;23.07;84.66
77523;SHT31;66637;-29.628;-49.938;2024-01-27T01:03:01;22.89;84.99
77523;SHT31;66637;-29.628;-49.938;2024-01-27T01:05:31;22.74;84.41
77523;SHT31;66637;-29.628;-49.938;2024-01-27T01:08:04;22.77;84.44
77523;SHT31;66637;-29.628;-49.938;2024-01-27T01:10:38;22.82;85.49
77523;SHT31;66637;-29.628;-49.938;2024-01-27T01:13:08;22.82;84.71
77523;SHT31;66637;-29.628;-49.938;2024-01-27T01:15:38;22.70;83.21
77523;SHT31;66637;-29.628;-49.938;2024-01-27T01:18:10;22.33;84.36
77523;SHT31;66637;-29.628;-49.938;2024-01-27T01:20:40;22.15;85.76
77523;SHT31;66637;-29.628;-49.938;2024-01-27T01:23:11;22.15;85.20
77523;SHT31;66637;-29.628;-49.938;2024-01-27T01:25:41;22.29;85.96
77523;SHT31;66637;-29.628;-49.938;2024-01-27T01:28:14;22.49;86.02
77523;SHT31;66637;-29.628;-49.938;2024-01-27T01:30:44;22.53;85.34
77523;SHT31;66637;-29.628;-49.938;2024-01-27T01:33:15;22.56;85.37
77523;SHT31;66637;-29.628;-49.938;2024-01-27T01:35:45;22.60;85.05
77523;SHT31;66637;-29.628;-49.938;2024-01-27T01:38:15;22.64;84.78
77523;SHT31;66637;-29.628;-49.938;2024-01-27T01:40:44;22.66;85.19
77523;SHT31;66637;-29.628;-49.938;2024-01-27T01:43:16;22.72;85.50
77523;SHT31;66637;-29.628;-49.938;2024-01-27T01:45:46;22.77;85.65
77523;SHT31;66637;-29.628;-49.938;2024-01-27T01:48:20;22.60;85.82
77523;SHT31;66637;-29.628;-49.938;2024-01-27T01:50:51;22.33;85.78
77523;SHT31;66637;-29.628;-49.938;2024-01-27T01:53:22;22.29;86.33
77523;SHT31;66637;-29.628;-49.938;2024-01-27T01:55:53;22.22;86.38
77523;SHT31;66637;-29.628;-49.938;2024-01-27T01:58:23;22.15;86.85
77523;SHT31;66637;-29.628;-49.938;2024-01-27T02:00:53;22.19;86.29
77523;SHT31;66637;-29.628;-49.938;2024-01-27T02:03:27;22.18;86.14
77523;SHT31;66637;-29.628;-49.938;2024-01-27T02:05:57;22.25;86.48
77523;SHT31;66637;-29.628;-49.938;2024-01-27T02:08:28;22.36;86.47
77523;SHT31;66637;-29.628;-49.938;2024-01-27T02:10:58;22.43;86.85
77523;SHT31;66637;-29.628;-49.938;2024-01-27T02:13:30;22.51;86.39
77523;SHT31;66637;-29.628;-49.938;2024-01-27T02:16:00;22.63;86.64
77523;SHT31;66637;-29.628;-49.938;2024-01-27T02:18:31;22.64;86.48
77523;SHT31;66637;-29.628;-49.938;2024-01-27T02:21:01;22.72;84.95
77523;SHT31;66637;-29.628;-49.938;2024-01-27T02:23:35;22.82;84.33
77523;SHT31;66637;-29.628;-49.938;2024-01-27T02:26:05;22.87;84.85
77523;SHT31;66637;-29.628;-49.938;2024-01-27T02:28:35;22.86;83.83
77523;SHT31;66637;-29.628;-49.938;2024-01-27T02:31:05;22.92;84.54
77523;SHT31;66637;-29.628;-49.938;2024-01-27T02:33:35;22.93;84.77
77523;SHT31;66637;-29.628;-49.938;2024-01-27T02:36:06;22.93;85.43
77523;SHT31;66637;-29.628;-49.938;2024-01-27T02:38:41;22.84;84.08
77523;SHT31;66637;-29.628;-49.938;2024-01-27T02:41:12;22.93;84.84
77523;SHT31;66637;-29.628;-49.938;2024-01-27T02:43:43;22.92;85.12
77523;SHT31;66637;-29.628;-49.938;2024-01-27T02:46:16;22.87;84.56
77523;SHT31;66637;-29.628;-49.938;2024-01-27T02:48:46;22.63;84.92
77523;SHT31;66637;-29.628;-49.938;2024-01-27T02:51:20;22.53;85.48
77523;SHT31;66637;-29.628;-49.938;2024-01-27T02:53:54;22.53;84.34
77523;SHT31;66637;-29.628;-49.938;2024-01-27T02:56:24;22.59;84.48
77523;SHT31;66637;-29.628;-49.938;2024-01-27T02:58:55;22.67;84.33
77523;SHT31;66637;-29.628;-49.938;2024-01-27T03:01:33;22.64;83.91
77523;SHT31;66637;-29.628;-49.938;2024-01-27T03:04:03;22.67;84.56
77523;SHT31;66637;-29.628;-49.938;2024-01-27T03:06:34;22.79;84.17
77523;SHT31;66637;-29.628;-49.938;2024-01-27T03:09:04;22.86;84.06
77523;SHT31;66637;-29.628;-49.938;2024-01-27T03:11:35;22.80;82.86
77523;SHT31;66637;-29.628;-49.938;2024-01-27T03:14:06;22.87;84.55
77523;SHT31;66637;-29.628;-49.938;2024-01-27T03:16:36;22.77;84.68
77523;SHT31;66637;-29.628;-49.938;2024-01-27T03:19:06;22.56;84.62
77523;SHT31;66637;-29.628;-49.938;2024-01-27T03:21:37;22.48;84.79
77523;SHT31;66637;-29.628;-49.938;2024-01-27T03:24:08;22.52;85.61
77523;SHT31;66637;-29.628;-49.938;2024-01-27T03:26:40;22.49;85.93
77523;SHT31;66637;-29.628;-49.938;2024-01-27T03:29:11;22.25;84.92
77523;SHT31;66637;-29.628;-49.938;2024-01-27T03:31:47;22.12;84.98
77523;SHT31;66637;-29.628;-49.938;2024-01-27T03:34:19;22.05;85.40
77523;SHT31;66637;-29.628;-49.938;2024-01-27T03:36:55;22.18;86.86
77523;SHT31;66637;-29.628;-49.938;2024-01-27T03:39:26;22.22;86.59
77523;SHT31;66637;-29.628;-49.938;2024-01-27T03:41:57;22.23;86.44
77523;SHT31;66637;-29.628;-49.938;2024-01-27T03:44:27;22.29;86.62
77523;SHT31;66637;-29.628;-49.938;2024-01-27T03:46:57;22.33;86.80
77523;SHT31;66637;-29.628;-49.938;2024-01-27T03:49:28;22.38;87.58
77523;SHT31;66637;-29.628;-49.938;2024-01-27T03:51:58;22.23;86.21
77523;SHT31;66637;-29.628;-49.938;2024-01-27T03:54:28;22.00;85.51
77523;SHT31;66637;-29.628;-49.938;2024-01-27T03:56:59;22.15;86.68
77523;SHT31;66637;-29.628;-49.938;2024-01-27T03:59:29;22.11;85.82
77523;SHT31;66637;-29.628;-49.938;2024-01-27T04:01:59;22.06;86.02
77523;SHT31;66637;-29.628;-49.938;2024-01-27T04:04:29;22.08;86.39
77523;SHT31;66637;-29.628;-49.938;2024-01-27T04:07:00;22.19;86.12
77523;SHT31;66637;-29.628;-49.938;2024-01-27T04:09:31;22.21;86.28
77523;SHT31;66637;-29.628;-49.938;2024-01-27T04:12:03;22.26;85.32
77523;SHT31;66637;-29.628;-49.938;2024-01-27T04:14:35;22.38;85.30
77523;SHT31;66637;-29.628;-49.938;2024-01-27T04:17:06;22.35;84.88
77523;SHT31;66637;-29.628;-49.938;2024-01-27T04:19:36;22.52;84.64
77523;SHT31;66637;-29.628;-49.938;2024-01-27T04:22:06;22.39;84.84
77523;SHT31;66637;-29.628;-49.938;2024-01-27T04:24:37;22.29;85.19
77523;SHT31;66637;-29.628;-49.938;2024-01-27T04:27:07;22.19;86.46
77523;SHT31;66637;-29.628;-49.938;2024-01-27T04:29:37;22.09;86.32
77523;SHT31;66637;-29.628;-49.938;2024-01-27T04:32:08;22.04;86.70
77523;SHT31;66637;-29.628;-49.938;2024-01-27T04:34:40;22.01;86.75
77523;SHT31;66637;-29.628;-49.938;2024-01-27T04:37:10;21.71;87.65
77523;SHT31;66637;-29.628;-49.938;2024-01-27T04:39:41;21.50;88.20
77523;SHT31;66637;-29.628;-49.938;2024-01-27T04:42:12;21.44;88.44
77523;SHT31;66637;-29.628;-49.938;2024-01-27T04:44:42;21.38;87.99
77523;SHT31;66637;-29.628;-49.938;2024-01-27T04:47:14;21.50;88.11
77523;SHT31;66637;-29.628;-49.938;2024-01-27T04:49:44;21.50;88.27
77523;SHT31;66637;-29.628;-49.938;2024-01-27T04:52:16;21.43;89.02
77523;SHT31;66637;-29.628;-49.938;2024-01-27T04:54:46;21.34;87.95
77523;SHT31;66637;-29.628;-49.938;2024-01-27T04:57:16;21.36;87.68
77523;SHT31;66637;-29.628;-49.938;2024-01-27T04:59:47;21.41;87.73
77523;SHT31;66637;-29.628;-49.938;2024-01-27T05:02:18;21.46;86.98
77523;SHT31;66637;-29.628;-49.938;2024-01-27T05:04:48;21.51;87.73
77523;SHT31;66637;-29.628;-49.938;2024-01-27T05:07:20;21.58;87.05
77523;SHT31;66637;-29.628;-49.938;2024-01-27T05:09:52;21.65;85.78
77523;SHT31;66637;-29.628;-49.938;2024-01-27T05:12:23;21.73;86.35
77523;SHT31;66637;-29.628;-49.938;2024-01-27T05:14:53;21.98;86.95
77523;SHT31;66637;-29.628;-49.938;2024-01-27T05:17:24;21.98;85.85
77523;SHT31;66637;-29.628;-49.938;2024-01-27T05:19:55;22.08;86.25
77523;SHT31;66637;-29.628;-49.938;2024-01-27T05:22:25;22.11;85.98
77523;SHT31;66637;-29.628;-49.938;2024-01-27T05:24:55;22.22;86.16
77523;SHT31;66637;-29.628;-49.938;2024-01-27T05:27:26;22.36;86.23
77523;SHT31;66637;-29.628;-49.938;2024-01-27T05:29:59;22.38;85.88
77523;SHT31;66637;-29.628;-49.938;2024-01-27T05:32:29;22.42;85.81
77523;SHT31;66637;-29.628;-49.938;2024-01-27T05:34:59;22.46;85.60
77523;SHT31;66637;-29.628;-49.938;2024-01-27T05:37:29;22.48;85.64
77523;SHT31;66637;-29.628;-49.938;2024-01-27T05:40:00;22.48;84.38
77523;SHT31;66637;-29.628;-49.938;2024-01-27T05:42:30;22.49;84.36
77523;SHT31;66637;-29.628;-49.938;2024-01-27T05:45:01;22.46;83.74
77523;SHT31;66637;-29.628;-49.938;2024-01-27T05:47:31;22.55;83.85
77523;SHT31;66637;-29.628;-49.938;2024-01-27T05:50:01;22.57;83.39
77523;SHT31;66637;-29.628;-49.938;2024-01-27T05:52:32;22.59;83.09
77523;SHT31;66637;-29.628;-49.938;2024-01-27T05:55:03;22.63;83.25
77523;SHT31;66637;-29.628;-49.938;2024-01-27T05:57:37;22.63;83.44
77523;SHT31;66637;-29.628;-49.938;2024-01-27T06:00:08;22.64;83.54
77523;SHT31;66637;-29.628;-49.938;2024-01-27T06:02:40;22.69;84.37
77523;SHT31;66637;-29.628;-49.938;2024-01-27T06:05:10;22.57;85.36
77523;SHT31;66637;-29.628;-49.938;2024-01-27T06:07:42;22.43;84.96
77523;SHT31;66637;-29.628;-49.938;2024-01-27T06:10:14;22.51;85.29
77523;SHT31;66637;-29.628;-49.938;2024-01-27T06:12:44;22.64;84.70
77523;SHT31;66637;-29.628;-49.938;2024-01-27T06:15:14;22.62;84.43
77523;SHT31;66637;-29.628;-49.938;2024-01-27T06:17:45;22.62;84.55
77523;SHT31;66637;-29.628;-49.938;2024-01-27T06:20:15;22.59;84.02
77523;SHT31;66637;-29.628;-49.938;2024-01-27T06:22:48;22.55;83.58
77523;SHT31;66637;-29.628;-49.938;2024-01-27T06:25:22;22.56;82.25
77523;SHT31;66637;-29.628;-49.938;2024-01-27T06:27:53;22.62;83.48
77523;SHT31;66637;-29.628;-49.938;2024-01-27T06:30:23;22.66;82.35
77523;SHT31;66637;-29.628;-49.938;2024-01-27T06:32:54;22.64;81.36
77523;SHT31;66637;-29.628;-49.938;2024-01-27T06:35:26;22.64;82.38
77523;SHT31;66637;-29.628;-49.938;2024-01-27T06:37:57;22.59;82.81
77523;SHT31;66637;-29.628;-49.938;2024-01-27T06:40:28;22.55;82.68
77523;SHT31;66637;-29.628;-49.938;2024-01-27T06:42:58;22.67;84.19
77523;SHT31;66637;-29.628;-49.938;2024-01-27T06:45:32;22.67;83.48
77523;SHT31;66637;-29.628;-49.938;2024-01-27T06:48:04;22.69;83.36
77523;SHT31;66637;-29.628;-49.938;2024-01-27T06:50:36;22.67;84.05
77523;SHT31;66637;-29.628;-49.938;2024-01-27T06:53:07;22.70;85.10
77523;SHT31;66637;-29.628;-49.938;2024-01-27T06:55:40;22.62;83.87
77523;SHT31;66637;-29.628;-49.938;2024-01-27T06:58:11;22.63;84.49
77523;SHT31;66637;-29.628;-49.938;2024-01-27T07:00:42;22.62;83.85
77523;SHT31;66637;-29.628;-49.938;2024-01-27T07:03:13;22.59;83.56
77523;SHT31;66637;-29.628;-49.938;2024-01-27T07:05:54;22.74;84.67
77523;SHT31;66637;-29.628;-49.938;2024-01-27T07:08:25;22.62;85.16
77523;SHT31;66637;-29.628;-49.938;2024-01-27T07:10:56;22.72;84.60
77523;SHT31;66637;-29.628;-49.938;2024-01-27T07:13:28;22.67;84.65
77523;SHT31;66637;-29.628;-49.938;2024-01-27T07:16:00;22.66;84.32
77523;SHT31;66637;-29.628;-49.938;2024-01-27T07:18:31;22.63;84.51
77523;SHT31;66637;-29.628;-49.938;2024-01-27T07:21:04;22.59;85.03
77523;SHT31;66637;-29.628;-49.938;2024-01-27T07:23:37;22.48;85.44
77523;SHT31;66637;-29.628;-49.938;2024-01-27T07:26:09;22.42;85.79
77523;SHT31;66637;-29.628;-49.938;2024-01-27T07:28:40;22.31;86.99
77523;SHT31;66637;-29.628;-49.938;2024-01-27T07:31:10;22.22;86.82
77523;SHT31;66637;-29.628;-49.938;2024-01-27T07:33:41;22.22;87.26
77523;SHT31;66637;-29.628;-49.938;2024-01-27T07:36:12;22.26;86.64
77523;SHT31;66637;-29.628;-49.938;2024-01-27T07:38:43;22.33;85.92
77523;SHT31;66637;-29.628;-49.938;2024-01-27T07:41:14;22.36;85.83
77523;SHT31;66637;-29.628;-49.938;2024-01-27T07:43:45;22.26;86.80
77523;SHT31;66637;-29.628;-49.938;2024-01-27T07:46:15;22.19;87.30
77523;SHT31;66637;-29.628;-49.938;2024-01-27T07:48:45;22.35;87.11
77523;SHT31;66637;-29.628;-49.938;2024-01-27T07:51:16;22.33;86.39
77523;SHT31;66637;-29.628;-49.938;2024-01-27T07:53:48;22.31;86.80
77523;SHT31;66637;-29.628;-49.938;2024-01-27T07:56:18;22.33;86.85
77523;SHT31;66637;-29.628;-49.938;2024-01-27T07:58:50;22.31;86.14
77523;SHT31;66637;-29.628;-49.938;2024-01-27T08:01:21;22.43;86.11
77523;SHT31;66637;-29.628;-49.938;2024-01-27T08:03:52;22.39;85.95
77523;SHT31;66637;-29.628;-49.938;2024-01-27T08:06:29;22.35;86.63
77523;SHT31;66637;-29.628;-49.938;2024-01-27T08:09:00;22.25;87.12
77523;SHT31;66637;-29.628;-49.938;2024-01-27T08:11:31;22.15;86.95
77523;SHT31;66637;-29.628;-49.938;2024-01-27T08:14:03;22.15;86.35
77523;SHT31;66637;-29.628;-49.938;2024-01-27T08:16:34;22.02;87.77
77523;SHT31;66637;-29.628;-49.938;2024-01-27T08:19:06;21.92;88.38
77523;SHT31;66637;-29.628;-49.938;2024-01-27T08:21:36;21.95;87.81
77523;SHT31;66637;-29.628;-49.938;2024-01-27T08:24:07;22.06;88.04
77523;SHT31;66637;-29.628;-49.938;2024-01-27T08:26:38;22.11;87.32
77523;SHT31;66637;-29.628;-49.938;2024-01-27T08:29:10;22.08;87.24
77523;SHT31;66637;-29.628;-49.938;2024-01-27T08:31:40;22.16;88.37
77523;SHT31;66637;-29.628;-49.938;2024-01-27T08:34:10;22.12;87.75
77523;SHT31;66637;-29.628;-49.938;2024-01-27T08:36:43;22.16;88.57
77523;SHT31;66637;-29.628;-49.938;2024-01-27T08:39:13;22.23;88.95
77523;SHT31;66637;-29.628;-49.938;2024-01-27T08:41:44;22.18;87.50
77523;SHT31;66637;-29.628;-49.938;2024-01-27T08:44:16;22.33;86.78
77523;SHT31;66637;-29.628;-49.938;2024-01-27T08:46:47;22.31;87.36
77523;SHT31;66637;-29.628;-49.938;2024-01-27T08:49:18;22.33;86.83
77523;SHT31;66637;-29.628;-49.938;2024-01-27T08:51:50;22.29;86.08
77523;SHT31;66637;-29.628;-49.938;2024-01-27T08:54:21;22.31;86.12
77523;SHT31;66637;-29.628;-49.938;2024-01-27T08:56:53;22.35;86.94
77523;SHT31;66637;-29.628;-49.938;2024-01-27T08:59:29;22.33;86.74
77523;SHT31;66637;-29.628;-49.938;2024-01-27T09:02:00;22.22;86.14
77523;SHT31;66637;-29.628;-49.938;2024-01-27T09:04:31;22.15;85.97
77523;SHT31;66637;-29.628;-49.938;2024-01-27T09:07:01;22.00;87.27
77523;SHT31;66637;-29.628;-49.938;2024-01-27T09:09:32;21.71;87.48
77523;SHT31;66637;-29.628;-49.938;2024-01-27T09:12:03;21.46;87.21
77523;SHT31;66637;-29.628;-49.938;2024-01-27T09:14:33;21.19;88.47
77523;SHT31;66637;-29.628;-49.938;2024-01-27T09:17:03;21.09;89.28
77523;SHT31;66637;-29.628;-49.938;2024-01-27T09:19:34;21.00;89.32
77523;SHT31;66637;-29.628;-49.938;2024-01-27T09:22:05;20.99;89.68
77523;SHT31;66637;-29.628;-49.938;2024-01-27T09:24:35;20.93;89.96
77523;SHT31;66637;-29.628;-49.938;2024-01-27T09:27:07;21.00;89.87
77523;SHT31;66637;-29.628;-49.938;2024-01-27T09:29:37;21.07;90.15
77523;SHT31;66637;-29.628;-49.938;2024-01-27T09:32:07;21.09;90.73
77523;SHT31;66637;-29.628;-49.938;2024-01-27T09:34:38;20.96;90.40
77523;SHT31;66637;-29.628;-49.938;2024-01-27T09:37:09;20.82;90.36
77523;SHT31;66637;-29.628;-49.938;2024-01-27T09:39:40;20.86;90.08
77523;SHT31;66637;-29.628;-49.938;2024-01-27T09:42:13;20.97;90.70
77523;SHT31;66637;-29.628;-49.938;2024-01-27T09:44:48;21.17;90.54
77523;SHT31;66637;-29.628;-49.938;2024-01-27T09:47:19;21.37;90.61
77523;SHT31;66637;-29.628;-49.938;2024-01-27T09:49:51;21.48;89.20
77523;SHT31;66637;-29.628;-49.938;2024-01-27T09:52:22;21.62;88.65
77523;SHT31;66637;-29.628;-49.938;2024-01-27T09:54:53;21.78;88.92
77523;SHT31;66637;-29.628;-49.938;2024-01-27T09:57:23;21.81;88.02
77523;SHT31;66637;-29.628;-49.938;2024-01-27T09:59:56;21.98;88.03
77523;SHT31;66637;-29.628;-49.938;2024-01-27T10:02:29;22.12;87.78
77523;SHT31;66637;-29.628;-49.938;2024-01-27T10:05:01;22.26;87.62
77523;SHT31;66637;-29.628;-49.938;2024-01-27T10:07:32;22.41;87.75
77523;SHT31;66637;-29.628;-49.938;2024-01-27T10:10:03;22.52;86.81
77523;SHT31;66637;-29.628;-49.938;2024-01-27T10:12:36;22.60;87.16
77523;SHT31;66637;-29.628;-49.938;2024-01-27T10:15:23;22.82;86.76
77523;SHT31;66637;-29.628;-49.938;2024-01-27T10:18:03;23.21;86.35
77523;SHT31;66637;-29.628;-49.938;2024-01-27T10:20:34;23.74;86.00
77523;SHT31;66637;-29.628;-49.938;2024-01-27T10:23:14;24.29;85.57
77523;SHT31;66637;-29.628;-49.938;2024-01-27T10:25:45;24.74;83.40
77523;SHT31;66637;-29.628;-49.938;2024-01-27T10:28:15;24.91;82.46
77523;SHT31;66637;-29.628;-49.938;2024-01-27T10:30:46;25.03;83.02
77523;SHT31;66637;-29.628;-49.938;2024-01-27T10:33:18;24.73;82.68
77523;SHT31;66637;-29.628;-49.938;2024-01-27T10:35:58;24.66;82.19
77523;SHT31;66637;-29.628;-49.938;2024-01-27T10:38:39;24.47;81.09
77523;SHT31;66637;-29.628;-49.938;2024-01-27T10:41:10;24.39;82.29
77523;SHT31;66637;-29.628;-49.938;2024-01-27T10:43:41;24.35;81.46
77523;SHT31;66637;-29.628;-49.938;2024-01-27T10:46:13;24.33;81.34
77523;SHT31;66637;-29.628;-49.938;2024-01-27T10:48:49;24.15;80.20
77523;SHT31;66637;-29.628;-49.938;2024-01-27T10:51:31;24.04;80.63
77523;SHT31;66637;-29.628;-49.938;2024-01-27T10:54:02;24.05;80.82
77523;SHT31;66637;-29.628;-49.938;2024-01-27T10:56:33;24.08;80.40
77523;SHT31;66637;-29.628;-49.938;2024-01-27T10:59:09;24.09;80.40
77523;SHT31;66637;-29.628;-49.938;2024-01-27T11:01:41;24.09;80.36
77523;SHT31;66637;-29.628;-49.938;2024-01-27T11:04:13;24.09;80.42
77523;SHT31;66637;-29.628;-49.938;2024-01-27T11:06:48;24.18;80.48
77523;SHT31;66637;-29.628;-49.938;2024-01-27T11:09:21;24.20;79.75
77523;SHT31;66637;-29.628;-49.938;2024-01-27T11:11:51;24.20;79.56
77523;SHT31;66637;-29.628;-49.938;2024-01-27T11:14:22;24.26;79.93
77523;SHT31;66637;-29.628;-49.938;2024-01-27T11:16:57;24.35;78.90
77523;SHT31;66637;-29.628;-49.938;2024-01-27T11:19:28;24.40;78.63
77523;SHT31;66637;-29.628;-49.938;2024-01-27T11:22:05;24.46;78.40
77523;SHT31;66637;-29.628;-49.938;2024-01-27T11:24:35;24.53;78.61
77523;SHT31;66637;-29.628;-49.938;2024-01-27T11:27:06;24.60;78.10
77523;SHT31;66637;-29.628;-49.938;2024-01-27T11:29:47;24.74;78.88
77523;SHT31;66637;-29.628;-49.938;2024-01-27T11:32:18;24.73;78.73
77523;SHT31;66637;-29.628;-49.938;2024-01-27T11:34:50;24.79;78.86
77523;SHT31;66637;-29.628;-49.938;2024-01-27T11:37:22;24.81;78.31
77523;SHT31;66637;-29.628;-49.938;2024-01-27T11:40:06;24.76;78.10
77523;SHT31;66637;-29.628;-49.938;2024-01-27T11:42:39;24.83;77.82
77523;SHT31;66637;-29.628;-49.938;2024-01-27T11:45:13;24.84;78.18
77523;SHT31;66637;-29.628;-49.938;2024-01-27T11:47:43;24.98;78.23
77523;SHT31;66637;-29.628;-49.938;2024-01-27T11:50:13;25.00;78.43
77523;SHT31;66637;-29.628;-49.938;2024-01-27T11:52:45;24.94;79.03
77523;SHT31;66637;-29.628;-49.938;2024-01-27T11:55:15;24.81;78.33
77523;SHT31;66637;-29.628;-49.938;2024-01-27T11:57:49;24.80;78.87
77523;SHT31;66637;-29.628;-49.938;2024-01-27T12:00:19;24.80;79.21
77523;SHT31;66637;-29.628;-49.938;2024-01-27T12:02:52;24.66;79.02
77523;SHT31;66637;-29.628;-49.938;2024-01-27T12:05:23;24.70;79.43
77523;SHT31;66637;-29.628;-49.938;2024-01-27T12:07:54;24.70;79.87
77523;SHT31;66637;-29.628;-49.938;2024-01-27T12:10:25;24.50;80.09
77523;SHT31;66637;-29.628;-49.938;2024-01-27T12:12:57;24.35;80.35
77523;SHT31;66637;-29.628;-49.938;2024-01-27T12:15:27;24.26;80.50
77523;SHT31;66637;-29.628;-49.938;2024-01-27T12:17:58;24.22;80.92
77523;SHT31;66637;-29.628;-49.938;2024-01-27T12:20:29;24.28;79.90
77523;SHT31;66637;-29.628;-49.938;2024-01-27T12:23:04;24.33;80.30
77523;SHT31;66637;-29.628;-49.938;2024-01-27T12:25:35;24.43;80.97
77523;SHT31;66637;-29.628;-49.938;2024-01-27T12:28:08;24.23;80.01
77523;SHT31;66637;-29.628;-49.938;2024-01-27T12:30:40;24.29;79.75
77523;SHT31;66637;-29.628;-49.938;2024-01-27T12:33:13;24.47;80.05
77523;SHT31;66637;-29.628;-49.938;2024-01-27T12:35:45;24.46;82.39
77523;SHT31;66637;-29.628;-49.938;2024-01-27T12:38:17;24.43;83.49
77523;SHT31;66637;-29.628;-49.938;2024-01-27T12:40:48;24.32;83.50
77523;SHT31;66637;-29.628;-49.938;2024-01-27T12:43:19;24.16;83.17
77523;SHT31;66637;-29.628;-49.938;2024-01-27T12:45:49;24.19;83.31
77523;SHT31;66637;-29.628;-49.938;2024-01-27T12:48:19;24.20;83.61
77523;SHT31;66637;-29.628;-49.938;2024-01-27T12:50:59;24.32;84.15
77523;SHT31;66637;-29.628;-49.938;2024-01-27T12:53:31;24.26;83.68
77523;SHT31;66637;-29.628;-49.938;2024-01-27T12:56:03;24.36;83.67
77523;SHT31;66637;-29.628;-49.938;2024-01-27T12:58:35;24.49;82.55
77523;SHT31;66637;-29.628;-49.938;2024-01-27T13:01:08;24.46;82.28
77523;SHT31;66637;-29.628;-49.938;2024-01-27T13:03:39;24.57;82.23
77523;SHT31;66637;-29.628;-49.938;2024-01-27T13:06:13;24.55;82.26
77523;SHT31;66637;-29.628;-49.938;2024-01-27T13:08:45;24.49;81.89
77523;SHT31;66637;-29.628;-49.938;2024-01-27T13:11:16;24.64;82.46
77523;SHT31;66637;-29.628;-49.938;2024-01-27T13:13:47;24.61;80.35
77523;SHT31;66637;-29.628;-49.938;2024-01-27T13:16:18;24.80;80.53
77523;SHT31;66637;-29.628;-49.938;2024-01-27T13:18:49;24.92;79.99
77523;SHT31;66637;-29.628;-49.938;2024-01-27T13:21:20;25.08;80.24
77523;SHT31;66637;-29.628;-49.938;2024-01-27T13:23:50;25.18;80.67
77523;SHT31;66637;-29.628;-49.938;2024-01-27T13:26:22;25.12;80.18
77523;SHT31;66637;-29.628;-49.938;2024-01-27T13:28:57;25.11;80.88
77523;SHT31;66637;-29.628;-49.938;2024-01-27T13:31:30;24.69;81.04
77523;SHT31;66637;-29.628;-49.938;2024-01-27T13:34:01;24.28;82.12
77523;SHT31;66637;-29.628;-49.938;2024-01-27T13:36:36;24.20;83.21
77523;SHT31;66637;-29.628;-49.938;2024-01-27T13:39:09;23.92;84.32
77523;SHT31;66637;-29.628;-49.938;2024-01-27T13:41:39;23.94;83.98
77523;SHT31;66637;-29.628;-49.938;2024-01-27T13:44:10;24.09;82.38
77523;SHT31;66637;-29.628;-49.938;2024-01-27T13:46:40;24.23;81.71
77523;SHT31;66637;-29.628;-49.938;2024-01-27T13:49:14;24.56;81.80
77523;SHT31;66637;-29.628;-49.938;2024-01-27T13:51:46;24.66;81.41
77523;SHT31;66637;-29.628;-49.938;2024-01-27T13:54:17;24.73;80.43
77523;SHT31;66637;-29.628;-49.938;2024-01-27T13:56:47;24.79;79.72
77523;SHT31;66637;-29.628;-49.938;2024-01-27T13:59:18;24.69;79.88
77523;SHT31;66637;-29.628;-49.938;2024-01-27T14:01:48;24.79;80.33
77523;SHT31;66637;-29.628;-49.938;2024-01-27T14:04:19;24.95;80.13
77523;SHT31;66637;-29.628;-49.938;2024-01-27T14:06:52;25.07;79.79
77523;SHT31;66637;-29.628;-49.938;2024-01-27T14:09:30;25.03;80.74
77523;SHT31;66637;-29.628;-49.938;2024-01-27T14:12:00;25.11;81.09
77523;SHT31;66637;-29.628;-49.938;2024-01-27T14:14:31;25.00;81.50
77523;SHT31;66637;-29.628;-49.938;2024-01-27T14:17:01;24.73;83.24
77523;SHT31;66637;-29.628;-49.938;2024-01-27T14:19:31;24.61;82.91
77523;SHT31;66637;-29.628;-49.938;2024-01-27T14:22:07;24.47;82.46
77523;SHT31;66637;-29.628;-49.938;2024-01-27T14:24:39;24.55;83.43
77523;SHT31;66637;-29.628;-49.938;2024-01-27T14:27:10;24.52;83.33
77523;SHT31;66637;-29.628;-49.938;2024-01-27T14:29:40;24.41;84.16
77523;SHT31;66637;-29.628;-49.938;2024-01-27T14:32:12;24.22;84.44
77523;SHT31;66637;-29.628;-49.938;2024-01-27T14:34:43;24.13;84.99
77523;SHT31;66637;-29.628;-49.938;2024-01-27T14:37:15;24.10;85.14
77523;SHT31;66637;-29.628;-49.938;2024-01-27T14:39:47;24.06;84.62
77523;SHT31;66637;-29.628;-49.938;2024-01-27T14:42:17;24.13;84.82
77523;SHT31;66637;-29.628;-49.938;2024-01-27T14:44:48;24.13;83.74
77523;SHT31;66637;-29.628;-49.938;2024-01-27T14:47:26;24.08;83.58
77523;SHT31;66637;-29.628;-49.938;2024-01-27T14:50:01;24.13;83.43
77523;SHT31;66637;-29.628;-49.938;2024-01-27T14:52:32;24.26;83.30
77523;SHT31;66637;-29.628;-49.938;2024-01-27T14:55:03;24.26;83.04
77523;SHT31;66637;-29.628;-49.938;2024-01-27T14:57:35;24.33;83.12
77523;SHT31;66637;-29.628;-49.938;2024-01-27T15:00:06;24.49;82.97
77523;SHT31;66637;-29.628;-49.938;2024-01-27T15:03:24;24.56;83.60
77523;SHT31;66637;-29.628;-49.938;2024-01-27T15:06:07;24.66;84.26
77523;SHT31;66637;-29.628;-49.938;2024-01-27T15:08:38;24.66;84.64
77523;SHT31;66637;-29.628;-49.938;2024-01-27T15:11:08;24.79;85.04
77523;SHT31;66637;-29.628;-49.938;2024-01-27T15:13:42;24.74;84.43